createdAt,value
2017-04-23T00:00:44.710Z,25.61
2017-04-23T00:01:54.691Z,25.61
2017-04-23T00:03:04.949Z,25.81
2017-04-23T00:04:15.225Z,25.71
2017-04-23T00:05:25.199Z,25.9
2017-04-23T00:06:35.476Z,25.98
2017-04-23T00:07:45.442Z,25.9
2017-04-23T00:08:55.963Z,25.81
2017-04-23T00:10:05.944Z,25.6
2017-04-23T00:11:16.223Z,25.61
2017-04-23T00:12:26.496Z,25.71
2017-04-23T00:13:36.790Z,25.52
2017-04-23T00:14:47.333Z,25.52
2017-04-23T00:15:57.606Z,25.79
2017-04-23T00:17:07.576Z,25.79
2017-04-23T00:18:17.560Z,25.9
2017-04-23T00:19:27.875Z,25.61
2017-04-23T00:20:38.472Z,25.52
2017-04-23T00:21:48.752Z,25.61
2017-04-23T00:22:59.042Z,25.99
2017-04-23T00:24:08.440Z,25.89
2017-04-23T00:25:18.405Z,25.89
2017-04-23T00:26:28.945Z,25.79
2017-04-23T00:27:38.907Z,25.61
2017-04-23T00:28:48.873Z,25.79
2017-04-23T00:29:58.837Z,25.98
2017-04-23T00:31:08.794Z,25.9
2017-04-23T00:32:19.018Z,25.7
2017-04-23T00:33:29.297Z,25.81
2017-04-23T00:34:39.574Z,25.89
2017-04-23T00:35:49.846Z,25.9
2017-04-23T00:36:59.814Z,25.79
2017-04-23T00:38:09.716Z,25.6
2017-04-23T00:39:19.995Z,25.89
2017-04-23T00:40:29.651Z,25.81
2017-04-23T00:41:39.618Z,25.89
2017-04-23T00:42:49.895Z,25.7
2017-04-23T00:44:00.423Z,25.7
2017-04-23T00:45:10.391Z,25.9
2017-04-23T00:46:20.353Z,25.6
2017-04-23T00:47:30.314Z,25.51
2017-04-23T00:48:40.596Z,25.9
2017-04-23T00:49:51.121Z,25.51
2017-04-23T00:51:01.405Z,25.6
2017-04-23T00:52:11.367Z,25.7
2017-04-23T00:53:21.699Z,25.6
2017-04-23T00:54:31.687Z,25.6
2017-04-23T00:55:41.903Z,25.6
2017-04-23T00:56:52.187Z,25.7
2017-04-23T00:58:02.485Z,25.51
2017-04-23T00:59:12.764Z,25.42
2017-04-23T01:00:23.053Z,25.71
2017-04-23T01:01:33.630Z,25.6
2017-04-23T01:02:43.593Z,25.6
2017-04-23T01:03:53.555Z,25.52
2017-04-23T01:05:03.834Z,25.89
2017-04-23T01:06:13.798Z,25.98
2017-04-23T01:07:24.333Z,25.81
2017-04-23T01:08:34.297Z,25.9
2017-04-23T01:09:44.581Z,25.89
2017-04-23T01:10:54.547Z,25.89
2017-04-23T01:12:04.835Z,25.51
2017-04-23T01:13:15.376Z,25.89
2017-04-23T01:14:25.351Z,25.9
2017-04-23T01:15:35.315Z,25.9
2017-04-23T01:16:45.285Z,25.79
2017-04-23T01:17:55.570Z,25.89
2017-04-23T01:19:05.788Z,25.9
2017-04-23T01:20:16.063Z,25.71
2017-04-23T01:21:26.338Z,25.7
2017-04-23T01:22:36.613Z,25.71
2017-04-23T01:23:46.902Z,25.7
2017-04-23T01:24:56.809Z,25.7
2017-04-23T01:26:07.100Z,25.7
2017-04-23T01:27:17.390Z,25.7
2017-04-23T01:28:27.359Z,25.79
2017-04-23T01:29:37.647Z,25.7
2017-04-23T01:30:48.168Z,25.7
2017-04-23T01:31:58.455Z,25.98
2017-04-23T01:33:08.414Z,25.89
2017-04-23T01:34:18.376Z,25.89
2017-04-23T01:35:28.651Z,25.89
2017-04-23T01:36:38.600Z,25.79
2017-04-23T01:37:48.915Z,25.79
2017-04-23T01:38:59.194Z,25.81
2017-04-23T01:40:09.158Z,25.89
2017-04-23T01:41:19.122Z,25.9
2017-04-23T01:42:29.648Z,25.7
2017-04-23T01:43:39.915Z,25.6
2017-04-23T01:44:50.196Z,25.7
2017-04-23T01:46:00.574Z,25.6
2017-04-23T01:47:10.847Z,25.89
2017-04-23T01:48:21.369Z,25.6
2017-04-23T01:49:31.651Z,25.7
2017-04-23T01:50:41.939Z,25.7
2017-04-23T01:51:51.905Z,25.7
2017-04-23T01:53:01.883Z,25.79
2017-04-23T01:54:12.395Z,25.79
2017-04-23T01:55:22.363Z,25.79
2017-04-23T01:56:32.643Z,25.7
2017-04-23T01:57:42.609Z,25.6
2017-04-23T01:58:52.271Z,25.7
2017-04-23T02:00:02.503Z,25.7
2017-04-23T02:01:12.776Z,25.6
2017-04-23T02:02:22.743Z,25.98
2017-04-23T02:03:32.717Z,25.7
2017-04-23T02:04:42.996Z,25.79
2017-04-23T02:05:53.211Z,25.89
2017-04-23T02:07:03.174Z,25.79
2017-04-23T02:08:13.157Z,25.89
2017-04-23T02:09:23.137Z,25.79
2017-04-23T02:10:33.414Z,25.51
2017-04-23T02:11:43.946Z,25.6
2017-04-23T02:12:54.220Z,25.41
2017-04-23T02:14:04.499Z,25.51
2017-04-23T02:15:14.771Z,25.81
2017-04-23T02:16:25.062Z,25.71
2017-04-23T02:17:35.587Z,25.98
2017-04-23T02:18:45.865Z,25.6
2017-04-23T02:19:55.832Z,25.98
2017-04-23T02:21:05.507Z,25.51
2017-04-23T02:22:15.797Z,25.61
2017-04-23T02:23:26.063Z,25.7
2017-04-23T02:24:36.050Z,25.51
2017-04-23T02:25:46.329Z,25.31
2017-04-23T02:26:56.607Z,25.42
2017-04-23T02:28:06.891Z,25.6
2017-04-23T02:29:17.483Z,25.6
2017-04-23T02:30:27.144Z,25.52
2017-04-23T02:31:37.425Z,25.6
2017-04-23T02:32:47.387Z,25.42
2017-04-23T02:33:57.710Z,25.6
2017-04-23T02:35:07.914Z,25.98
2017-04-23T02:36:17.882Z,25.79
2017-04-23T02:37:28.156Z,25.89
2017-04-23T02:38:38.124Z,25.51
2017-04-23T02:39:48.099Z,25.41
2017-04-23T02:40:58.635Z,25.31
2017-04-23T02:42:08.595Z,25.71
2017-04-23T02:43:18.966Z,25.41
2017-04-23T02:44:28.934Z,25.6
2017-04-23T02:45:39.230Z,25.52
2017-04-23T02:46:49.771Z,25.41
2017-04-23T02:48:00.053Z,25.61
2017-04-23T02:49:09.710Z,25.98
2017-04-23T02:50:19.677Z,25.7
2017-04-23T02:51:29.656Z,25.41
2017-04-23T02:52:40.245Z,25.51
2017-04-23T02:53:50.534Z,25.61
2017-04-23T02:55:00.500Z,25.9
2017-04-23T02:56:10.468Z,25.89
2017-04-23T02:57:20.750Z,25.89
2017-04-23T02:58:30.965Z,25.6
2017-04-23T02:59:40.934Z,25.89
2017-04-23T03:00:51.220Z,25.79
2017-04-23T03:02:00.867Z,25.7
2017-04-23T03:03:10.850Z,25.98
2017-04-23T03:04:21.073Z,25.7
2017-04-23T03:05:31.354Z,25.6
2017-04-23T03:06:41.327Z,25.7
2017-04-23T03:07:51.303Z,25.7
2017-04-23T03:09:01.616Z,25.7
2017-04-23T03:10:12.193Z,25.79
2017-04-23T03:11:22.155Z,25.7
2017-04-23T03:12:32.435Z,25.89
2017-04-23T03:13:42.712Z,25.7
2017-04-23T03:14:52.986Z,25.6
2017-04-23T03:16:03.531Z,25.51
2017-04-23T03:17:13.508Z,25.7
2017-04-23T03:18:23.481Z,25.31
2017-04-23T03:19:33.768Z,25.6
2017-04-23T03:20:44.065Z,25.51
2017-04-23T03:21:54.592Z,25.32
2017-04-23T03:23:04.566Z,25.51
2017-04-23T03:24:14.832Z,26.09
2017-04-23T03:25:24.803Z,25.6
2017-04-23T03:26:35.086Z,25.51
2017-04-23T03:27:45.636Z,25.51
2017-04-23T03:28:55.913Z,25.71
2017-04-23T03:30:06.188Z,25.99
2017-04-23T03:31:16.154Z,25.61
2017-04-23T03:32:26.140Z,25.89
2017-04-23T03:33:36.666Z,25.89
2017-04-23T03:34:46.640Z,25.79
2017-04-23T03:35:56.609Z,25.89
2017-04-23T03:37:06.876Z,25.7
2017-04-23T03:38:16.854Z,25.51
2017-04-23T03:39:27.392Z,25.89
2017-04-23T03:40:37.359Z,25.52
2017-04-23T03:41:47.325Z,25.89
2017-04-23T03:42:57.303Z,25.79
2017-04-23T03:44:07.582Z,25.7
2017-04-23T03:45:17.801Z,25.98
2017-04-23T03:46:28.083Z,25.6
2017-04-23T03:47:38.055Z,25.51
2017-04-23T03:48:48.030Z,25.6
2017-04-23T03:49:58.317Z,25.7
2017-04-23T03:51:08.901Z,25.51
2017-04-23T03:52:19.177Z,25.79
2017-04-23T03:53:29.459Z,25.98
2017-04-23T03:54:39.740Z,25.6
2017-04-23T03:55:49.404Z,25.6
2017-04-23T03:56:59.613Z,25.52
2017-04-23T03:58:09.581Z,25.21
2017-04-23T03:59:19.550Z,25.41
2017-04-23T04:00:29.822Z,25.23
2017-04-23T04:01:40.101Z,25.42
2017-04-23T04:02:50.626Z,25.31
2017-04-23T04:04:00.913Z,25.6
2017-04-23T04:05:11.201Z,25.41
2017-04-23T04:06:21.475Z,25.41
2017-04-23T04:07:31.749Z,25.41
2017-04-23T04:08:41.654Z,25.61
2017-04-23T04:09:51.936Z,25.79
2017-04-23T04:11:02.221Z,25.7
2017-04-23T04:12:12.180Z,25.79
2017-04-23T04:13:22.453Z,25.99
2017-04-23T04:14:32.684Z,25.79
2017-04-23T04:15:42.337Z,25.6
2017-04-23T04:16:52.625Z,25.6
2017-04-23T04:18:02.894Z,25.7
2017-04-23T04:19:13.171Z,25.7
2017-04-23T04:20:23.391Z,25.6
2017-04-23T04:21:33.665Z,25.51
2017-04-23T04:22:43.628Z,25.98
2017-04-23T04:23:53.584Z,25.89
2017-04-23T04:25:03.554Z,26.08
2017-04-23T04:26:13.510Z,26.18
2017-04-23T04:27:23.394Z,25.89
2017-04-23T04:28:33.671Z,26.08
2017-04-23T04:29:43.633Z,25.7
2017-04-23T04:30:53.921Z,25.7
2017-04-23T04:32:04.502Z,25.7
2017-04-23T04:33:14.773Z,25.79
2017-04-23T04:34:24.744Z,25.79
2017-04-23T04:35:34.404Z,25.9
2017-04-23T04:36:44.386Z,25.6
2017-04-23T04:37:54.915Z,25.99
2017-04-23T04:39:05.190Z,25.6
2017-04-23T04:40:14.863Z,25.61
2017-04-23T04:41:25.154Z,25.6
2017-04-23T04:42:35.154Z,25.99
2017-04-23T04:43:45.683Z,25.7
2017-04-23T04:44:55.957Z,25.7
2017-04-23T04:46:05.935Z,25.98
2017-04-23T04:47:16.212Z,25.9
2017-04-23T04:48:26.174Z,25.61
2017-04-23T04:49:36.705Z,25.6
2017-04-23T04:50:46.997Z,25.89
2017-04-23T04:51:57.268Z,25.7
2017-04-23T04:53:07.237Z,25.52
2017-04-23T04:54:17.524Z,25.51
2017-04-23T04:55:27.751Z,25.41
2017-04-23T04:56:37.717Z,25.41
2017-04-23T04:57:47.997Z,25.12
2017-04-23T04:58:58.282Z,25.23
2017-04-23T05:00:08.555Z,25.51
2017-04-23T05:01:18.768Z,25.52
2017-04-23T05:02:29.042Z,25.9
2017-04-23T05:03:39.324Z,25.89
2017-04-23T05:04:49.610Z,25.79
2017-04-23T05:05:59.898Z,25.7
2017-04-23T05:07:10.419Z,26.09
2017-04-23T05:08:20.699Z,25.79
2017-04-23T05:09:30.656Z,25.89
2017-04-23T05:10:40.940Z,25.6
2017-04-23T05:11:51.221Z,25.89
2017-04-23T05:13:01.753Z,25.6
2017-04-23T05:14:11.718Z,25.51
2017-04-23T05:15:21.687Z,26.08
2017-04-23T05:16:31.963Z,25.6
2017-04-23T05:17:41.942Z,25.52
2017-04-23T05:18:52.166Z,25.6
2017-04-23T05:20:02.449Z,25.79
2017-04-23T05:21:12.729Z,25.79
2017-04-23T05:22:23.002Z,25.98
2017-04-23T05:23:32.975Z,25.6
2017-04-23T05:24:43.193Z,25.52
2017-04-23T05:25:53.465Z,25.41
2017-04-23T05:27:03.437Z,25.9
2017-04-23T05:28:13.734Z,25.71
2017-04-23T05:29:23.698Z,25.31
2017-04-23T05:30:33.917Z,25.51
2017-04-23T05:31:43.559Z,25.51
2017-04-23T05:32:53.525Z,25.51
2017-04-23T05:34:03.797Z,25.71
2017-04-23T05:35:13.451Z,25.21
2017-04-23T05:36:23.989Z,25.52
2017-04-23T05:37:33.980Z,25.51
2017-04-23T05:38:44.265Z,25.7
2017-04-23T05:39:54.538Z,25.51
2017-04-23T05:41:04.499Z,25.21
2017-04-23T05:42:15.033Z,25.23
2017-04-23T05:43:25.314Z,25.6
2017-04-23T05:44:35.607Z,25.7
2017-04-23T05:45:45.897Z,25.41
2017-04-23T05:46:56.181Z,25.21
2017-04-23T05:48:06.401Z,25.13
2017-04-23T05:49:16.695Z,25.42
2017-04-23T05:50:26.664Z,25.61
2017-04-23T05:51:36.638Z,25.61
2017-04-23T05:52:46.608Z,25.51
2017-04-23T05:53:56.516Z,25.98
2017-04-23T05:55:06.793Z,25.7
2017-04-23T05:56:16.454Z,25.52
2017-04-23T05:57:26.736Z,25.23
2017-04-23T05:58:36.710Z,25.42
2017-04-23T05:59:46.934Z,25.42
2017-04-23T06:00:57.209Z,25.13
2017-04-23T06:02:07.198Z,25.04
2017-04-23T06:03:17.480Z,25.23
2017-04-23T06:04:27.451Z,25.13
2017-04-23T06:05:37.347Z,25.42
2017-04-23T06:06:47.312Z,25.32
2017-04-23T06:07:57.592Z,25.13
2017-04-23T06:09:07.896Z,25.31
2017-04-23T06:10:17.865Z,25.41
2017-04-23T06:11:28.456Z,25.51
2017-04-23T06:12:38.729Z,25.13
2017-04-23T06:13:49.014Z,25.23
2017-04-23T06:14:59.302Z,25.23
2017-04-23T06:16:09.595Z,25.13
2017-04-23T06:17:20.130Z,25.32
2017-04-23T06:18:30.416Z,24.94
2017-04-23T06:19:40.696Z,25.04
2017-04-23T06:20:50.661Z,25.23
2017-04-23T06:22:00.649Z,25.13
2017-04-23T06:23:11.185Z,25.13
2017-04-23T06:24:21.460Z,25.32
2017-04-23T06:25:31.438Z,25.23
2017-04-23T06:26:41.419Z,25.23
2017-04-23T06:27:51.721Z,25.23
2017-04-23T06:29:02.254Z,25.23
2017-04-23T06:30:12.226Z,25.04
2017-04-23T06:31:22.521Z,25.42
2017-04-23T06:32:32.493Z,25.42
2017-04-23T06:33:42.786Z,25.32
2017-04-23T06:34:53.335Z,25.32
2017-04-23T06:36:03.616Z,25.13
2017-04-23T06:37:13.891Z,25.13
2017-04-23T06:38:24.171Z,25.32
2017-04-23T06:39:34.487Z,25.13
2017-04-23T06:40:45.022Z,24.94
2017-04-23T06:41:55.297Z,24.94
2017-04-23T06:43:05.581Z,24.94
2017-04-23T06:44:15.865Z,24.85
2017-04-23T06:45:26.160Z,24.85
2017-04-23T06:46:36.368Z,24.94
2017-04-23T06:47:46.348Z,24.94
2017-04-23T06:48:56.327Z,24.94
2017-04-23T06:50:05.679Z,24.94
2017-04-23T06:51:15.651Z,25.04
2017-04-23T06:52:26.170Z,25.04
2017-04-23T06:53:36.463Z,24.75
2017-04-23T06:54:46.737Z,24.75
2017-04-23T06:55:56.719Z,25.13
2017-04-23T06:57:06.992Z,25.42
2017-04-23T06:58:16.898Z,24.85
2017-04-23T06:59:26.865Z,25.13
2017-04-23T07:00:37.178Z,25.13
2017-04-23T07:01:47.461Z,24.94
2017-04-23T07:02:57.745Z,25.13
2017-04-23T07:04:07.962Z,24.85
2017-04-23T07:05:17.962Z,24.75
2017-04-23T07:06:28.272Z,25.23
2017-04-23T07:07:38.560Z,25.13
2017-04-23T07:08:48.851Z,24.74
2017-04-23T07:09:59.448Z,24.75
2017-04-23T07:11:09.734Z,24.94
2017-04-23T07:12:20.012Z,25.13
2017-04-23T07:13:30.314Z,25.13
2017-04-23T07:14:40.619Z,24.75
2017-04-23T07:15:50.522Z,25.13
2017-04-23T07:17:00.500Z,25.04
2017-04-23T07:18:11.011Z,24.75
2017-04-23T07:19:20.974Z,24.85
2017-04-23T07:20:30.946Z,25.04
2017-04-23T07:21:41.488Z,25.04
2017-04-23T07:22:51.468Z,25.04
2017-04-23T07:24:01.773Z,25.04
2017-04-23T07:25:12.061Z,24.94
2017-04-23T07:26:22.345Z,25.32
2017-04-23T07:27:32.899Z,25.32
2017-04-23T07:28:43.203Z,24.94
2017-04-23T07:29:53.485Z,24.75
2017-04-23T07:31:03.784Z,24.94
2017-04-23T07:32:14.060Z,24.94
2017-04-23T07:33:24.279Z,25.04
2017-04-23T07:34:34.568Z,25.04
2017-04-23T07:35:44.854Z,25.13
2017-04-23T07:36:55.151Z,25.04
2017-04-23T07:38:05.114Z,25.04
2017-04-23T07:39:15.645Z,24.94
2017-04-23T07:40:25.936Z,24.85
2017-04-23T07:41:35.589Z,25.04
2017-04-23T07:42:45.868Z,25.42
2017-04-23T07:43:55.841Z,25.13
2017-04-23T07:45:06.367Z,25.04
2017-04-23T07:46:16.648Z,25.32
2017-04-23T07:47:26.612Z,25.23
2017-04-23T07:48:36.892Z,25.04
2017-04-23T07:49:46.864Z,24.75
2017-04-23T07:50:57.391Z,24.94
2017-04-23T07:52:07.674Z,24.65
2017-04-23T07:53:17.354Z,25.13
2017-04-23T07:54:27.328Z,25.04
2017-04-23T07:55:37.320Z,24.94
2017-04-23T07:56:47.929Z,25.23
2017-04-23T07:57:57.903Z,24.75
2017-04-23T07:59:08.193Z,24.85
2017-04-23T08:00:18.485Z,25.13
2017-04-23T08:01:28.779Z,24.65
2017-04-23T08:02:39.314Z,24.85
2017-04-23T08:03:49.607Z,24.65
2017-04-23T08:04:59.884Z,24.65
2017-04-23T08:06:10.164Z,24.65
2017-04-23T08:07:20.141Z,24.65
2017-04-23T08:08:30.370Z,24.65
2017-04-23T08:09:40.659Z,24.85
2017-04-23T08:10:50.310Z,24.75
2017-04-23T08:12:00.616Z,24.56
2017-04-23T08:13:10.902Z,24.56
2017-04-23T08:14:21.181Z,24.65
2017-04-23T08:15:31.469Z,24.65
2017-04-23T08:16:41.126Z,24.94
2017-04-23T08:17:51.104Z,24.65
2017-04-23T08:19:01.333Z,24.65
2017-04-23T08:20:11.577Z,24.65
2017-04-23T08:21:21.864Z,24.75
2017-04-23T08:22:32.155Z,24.56
2017-04-23T08:23:42.455Z,24.65
2017-04-23T08:24:52.754Z,24.65
2017-04-23T08:26:03.336Z,24.38
2017-04-23T08:27:13.621Z,24.46
2017-04-23T08:28:23.908Z,24.48
2017-04-23T08:29:34.183Z,24.85
2017-04-23T08:30:44.465Z,24.46
2017-04-23T08:31:55.081Z,24.65
2017-04-23T08:33:04.435Z,24.37
2017-04-23T08:34:14.726Z,24.46
2017-04-23T08:35:24.715Z,24.37
2017-04-23T08:36:35.005Z,24.46
2017-04-23T08:37:44.930Z,23.88
2017-04-23T08:38:55.230Z,24.08
2017-04-23T08:40:05.520Z,24.09
2017-04-23T08:41:15.517Z,24.28
2017-04-23T08:42:25.818Z,24.38
2017-04-23T08:43:36.414Z,24.27
2017-04-23T08:44:46.426Z,23.98
2017-04-23T08:45:56.716Z,24.37
2017-04-23T08:47:06.688Z,24.18
2017-04-23T08:48:16.993Z,24.18
2017-04-23T08:49:27.586Z,23.98
2017-04-23T08:50:36.651Z,24.38
2017-04-23T08:51:46.632Z,24.18
2017-04-23T08:52:56.915Z,24.37
2017-04-23T08:54:06.894Z,24.38
2017-04-23T08:55:17.171Z,23.8
2017-04-23T08:56:27.161Z,23.9
2017-04-23T08:57:37.159Z,24.28
2017-04-23T08:58:47.155Z,23.9
2017-04-23T08:59:57.448Z,23.9
2017-04-23T09:01:07.684Z,23.99
2017-04-23T09:02:17.973Z,23.99
2017-04-23T09:03:28.261Z,24.48
2017-04-23T09:04:38.246Z,24.28
2017-04-23T09:05:48.246Z,24.18
2017-04-23T09:06:58.486Z,24.08
2017-04-23T09:08:08.471Z,24.37
2017-04-23T09:09:17.850Z,24.28
2017-04-23T09:10:28.157Z,24.09
2017-04-23T09:11:38.456Z,24.38
2017-04-23T09:12:49.055Z,24.46
2017-04-23T09:13:58.743Z,24.56
2017-04-23T09:15:09.039Z,24.65
2017-04-23T09:16:19.356Z,24.65
2017-04-23T09:17:29.356Z,24.65
2017-04-23T09:18:39.961Z,24.46
2017-04-23T09:19:49.958Z,24.65
2017-04-23T09:21:00.256Z,24.57
2017-04-23T09:22:10.293Z,24.48
2017-04-23T09:23:20.647Z,24.76
2017-04-23T09:24:31.271Z,24.66
2017-04-23T09:25:41.254Z,24.66
2017-04-23T09:26:51.634Z,24.66
2017-04-23T09:28:01.985Z,24.75
2017-04-23T09:29:12.335Z,24.57
2017-04-23T09:30:22.902Z,24.57
2017-04-23T09:31:33.198Z,24.86
2017-04-23T09:32:43.493Z,24.66
2017-04-23T09:33:53.503Z,24.66
2017-04-23T09:35:03.532Z,24.48
2017-04-23T09:36:14.079Z,24.28
2017-04-23T09:37:24.394Z,24.28
2017-04-23T09:38:34.717Z,24.76
2017-04-23T09:39:45.096Z,24.75
2017-04-23T09:40:55.095Z,24.85
2017-04-23T09:42:05.359Z,24.66
2017-04-23T09:43:15.685Z,24.66
2017-04-23T09:44:25.694Z,24.48
2017-04-23T09:45:36.032Z,24.28
2017-04-23T09:46:46.039Z,24.65
2017-04-23T09:47:55.973Z,24.57
2017-04-23T09:49:06.305Z,24.38
2017-04-23T09:50:16.324Z,24.28
2017-04-23T09:51:26.318Z,24.19
2017-04-23T09:52:36.655Z,24.28
2017-04-23T09:53:46.592Z,23.99
2017-04-23T09:54:56.623Z,23.99
2017-04-23T09:56:06.955Z,24.66
2017-04-23T09:57:17.302Z,24.94
2017-04-23T09:58:27.655Z,24.65
2017-04-23T09:59:38.209Z,24.85
2017-04-23T10:00:47.937Z,24.38
2017-04-23T10:01:58.271Z,24.38
2017-04-23T10:03:08.614Z,24.66
2017-04-23T10:04:18.618Z,24.38
2017-04-23T10:05:29.199Z,24.86
2017-04-23T10:06:39.220Z,24.48
2017-04-23T10:07:49.539Z,24.38
2017-04-23T10:08:59.851Z,24.76
2017-04-23T10:10:09.875Z,24.66
2017-04-23T10:11:20.502Z,24.76
2017-04-23T10:12:30.846Z,24.66
2017-04-23T10:13:41.220Z,24.76
2017-04-23T10:14:51.543Z,24.76
2017-04-23T10:16:01.875Z,24.86
2017-04-23T10:17:12.439Z,24.86
2017-04-23T10:18:22.814Z,24.86
2017-04-23T10:19:32.498Z,24.76
2017-04-23T10:20:42.839Z,25.05
2017-04-23T10:21:53.206Z,24.86
2017-04-23T10:23:03.811Z,25.15
2017-04-23T10:24:13.823Z,24.76
2017-04-23T10:25:24.154Z,24.95
2017-04-23T10:26:34.181Z,24.86
2017-04-23T10:27:43.859Z,24.86
2017-04-23T10:28:54.510Z,24.95
2017-04-23T10:30:04.837Z,24.86
2017-04-23T10:31:14.871Z,25.15
2017-04-23T10:32:24.867Z,25.05
2017-04-23T10:33:34.896Z,25.05
2017-04-23T10:34:45.156Z,24.95
2017-04-23T10:35:55.459Z,24.95
2017-04-23T10:37:05.799Z,24.76
2017-04-23T10:38:16.151Z,24.86
2017-04-23T10:39:26.484Z,24.86
2017-04-23T10:40:36.741Z,24.86
2017-04-23T10:41:47.069Z,24.76
2017-04-23T10:42:57.072Z,25.05
2017-04-23T10:44:07.089Z,25.05
2017-04-23T10:45:17.429Z,25.05
2017-04-23T10:46:27.695Z,25.15
2017-04-23T10:47:37.695Z,25.05
2017-04-23T10:48:48.046Z,25.15
2017-04-23T10:49:58.061Z,25.24
2017-04-23T10:51:07.729Z,24.76
2017-04-23T10:52:18.330Z,25.05
2017-04-23T10:53:28.715Z,25.05
2017-04-23T10:54:38.779Z,25.24
2017-04-23T10:55:48.777Z,24.66
2017-04-23T10:56:59.151Z,24.76
2017-04-23T10:58:09.443Z,24.86
2017-04-23T10:59:19.777Z,24.76
2017-04-23T11:00:30.126Z,24.76
2017-04-23T11:01:40.460Z,24.86
2017-04-23T11:02:50.787Z,24.66
2017-04-23T11:04:00.777Z,24.76
2017-04-23T11:05:10.825Z,24.48
2017-04-23T11:06:21.158Z,24.28
2017-04-23T11:07:31.172Z,24.19
2017-04-23T11:08:41.480Z,24.38
2017-04-23T11:09:51.759Z,24.28
2017-04-23T11:11:01.765Z,24.09
2017-04-23T11:12:12.109Z,23.99
2017-04-23T11:13:22.459Z,24.09
2017-04-23T11:14:32.794Z,23.99
2017-04-23T11:15:43.083Z,23.99
2017-04-23T11:16:53.423Z,23.99
2017-04-23T11:18:03.748Z,24.09
2017-04-23T11:19:13.753Z,24.09
2017-04-23T11:20:24.092Z,24.28
2017-04-23T11:21:34.726Z,23.99
2017-04-23T11:22:45.043Z,24.28
2017-04-23T11:23:55.362Z,23.99
2017-04-23T11:25:05.391Z,24.28
2017-04-23T11:26:15.741Z,23.8
2017-04-23T11:27:26.026Z,23.9
2017-04-23T11:28:36.061Z,23.8
2017-04-23T11:29:46.395Z,23.71
2017-04-23T11:30:56.730Z,23.8
2017-04-23T11:32:06.752Z,23.8
2017-04-23T11:33:17.036Z,23.8
2017-04-23T11:34:27.029Z,23.71
2017-04-23T11:35:37.381Z,23.71
2017-04-23T11:36:47.724Z,23.9
2017-04-23T11:37:58.029Z,23.8
2017-04-23T11:39:08.320Z,23.71
2017-04-23T11:40:18.686Z,23.61
2017-04-23T11:41:28.713Z,23.14
2017-04-23T11:42:39.036Z,23.24
2017-04-23T11:43:49.426Z,23.13
2017-04-23T11:44:59.696Z,23.42
2017-04-23T11:46:09.419Z,23.24
2017-04-23T11:47:19.466Z,23.22
2017-04-23T11:48:29.794Z,23.24
2017-04-23T11:49:40.134Z,23.13
2017-04-23T11:50:50.763Z,23.22
2017-04-23T11:52:01.107Z,23.13
2017-04-23T11:53:11.429Z,23.13
2017-04-23T11:54:21.774Z,23.52
2017-04-23T11:55:32.097Z,23.61
2017-04-23T11:56:42.701Z,23.52
2017-04-23T11:57:53.015Z,23.61
2017-04-23T11:59:03.352Z,23.61
2017-04-23T12:00:13.388Z,23.13
2017-04-23T12:01:23.720Z,23.13
2017-04-23T12:02:34.301Z,23.52
2017-04-23T12:03:44.369Z,22.94
2017-04-23T12:04:54.749Z,23.13
2017-04-23T12:06:04.443Z,23.22
2017-04-23T12:07:14.790Z,23.22
2017-04-23T12:08:25.051Z,23.32
2017-04-23T12:09:35.420Z,23.42
2017-04-23T12:10:45.738Z,23.22
2017-04-23T12:11:56.076Z,23.22
2017-04-23T12:13:06.397Z,23.22
2017-04-23T12:14:16.984Z,23.32
2017-04-23T12:15:27.349Z,23.03
2017-04-23T12:16:37.345Z,23.13
2017-04-23T12:17:47.362Z,22.84
2017-04-23T12:18:57.369Z,22.94
2017-04-23T12:20:07.984Z,23.14
2017-04-23T12:21:18.324Z,22.94
2017-04-23T12:22:28.662Z,22.94
2017-04-23T12:23:39.001Z,22.84
2017-04-23T12:24:49.389Z,23.03
2017-04-23T12:25:59.947Z,23.13
2017-04-23T12:27:10.290Z,23.03
2017-04-23T12:28:20.334Z,22.94
2017-04-23T12:29:30.662Z,22.94
2017-04-23T12:30:41.003Z,22.94
2017-04-23T12:31:51.601Z,23.03
2017-04-23T12:33:01.948Z,23.03
2017-04-23T12:34:12.321Z,23.03
2017-04-23T12:35:22.772Z,23.03
2017-04-23T12:36:33.137Z,22.65
2017-04-23T12:37:43.485Z,22.84
2017-04-23T12:38:53.889Z,22.75
2017-04-23T12:40:04.063Z,22.84
2017-04-23T12:41:14.182Z,22.85
2017-04-23T12:42:24.599Z,22.66
2017-04-23T12:43:35.050Z,22.85
2017-04-23T12:44:45.105Z,22.55
2017-04-23T12:45:55.539Z,22.75
2017-04-23T12:47:06.039Z,23.03
2017-04-23T12:48:16.516Z,22.94
2017-04-23T12:49:26.693Z,22.75
2017-04-23T12:50:37.174Z,22.65
2017-04-23T12:51:47.672Z,22.84
2017-04-23T12:52:58.072Z,22.65
2017-04-23T12:54:08.286Z,22.84
2017-04-23T12:55:19.317Z,22.75
2017-04-23T12:56:29.717Z,22.76
2017-04-23T12:57:40.103Z,22.56
2017-04-23T12:58:50.510Z,22.66
2017-04-23T13:00:00.669Z,22.76
2017-04-23T13:01:11.000Z,22.65
2017-04-23T13:02:21.461Z,22.75
2017-04-23T13:03:31.857Z,22.65
2017-04-23T13:04:41.983Z,22.36
2017-04-23T13:05:52.389Z,22.76
2017-04-23T13:07:02.763Z,22.55
2017-04-23T13:08:13.207Z,22.56
2017-04-23T13:09:23.695Z,22.56
2017-04-23T13:10:34.117Z,22.46
2017-04-23T13:11:44.562Z,22.66
2017-04-23T13:12:54.599Z,22.46
2017-04-23T13:14:05.057Z,22.28
2017-04-23T13:15:15.537Z,22.46
2017-04-23T13:16:25.307Z,22.18
2017-04-23T13:17:35.395Z,22.36
2017-04-23T13:18:46.025Z,22.36
2017-04-23T13:19:56.165Z,22.36
2017-04-23T13:21:06.254Z,22.36
2017-04-23T13:22:16.384Z,22.46
2017-04-23T13:23:26.523Z,22.46
2017-04-23T13:24:37.175Z,22.46
2017-04-23T13:25:47.669Z,22.65
2017-04-23T13:26:58.093Z,21.98
2017-04-23T13:28:08.245Z,22.08
2017-04-23T13:29:18.372Z,21.89
2017-04-23T13:30:28.880Z,21.98
2017-04-23T13:31:38.996Z,22.08
2017-04-23T13:32:49.501Z,21.98
2017-04-23T13:34:00.018Z,22.17
2017-04-23T13:35:10.446Z,21.88
2017-04-23T13:36:21.144Z,21.89
2017-04-23T13:37:31.606Z,22.17
2017-04-23T13:38:41.737Z,21.88
2017-04-23T13:39:51.840Z,21.98
2017-04-23T13:41:01.959Z,22.08
2017-04-23T13:42:12.634Z,22.27
2017-04-23T13:43:23.435Z,22.08
2017-04-23T13:44:34.031Z,21.88
2017-04-23T13:45:44.144Z,22.27
2017-04-23T13:46:54.273Z,22.08
2017-04-23T13:48:04.740Z,22.17
2017-04-23T13:49:14.527Z,21.98
2017-04-23T13:50:24.958Z,22.08
2017-04-23T13:51:35.345Z,21.98
2017-04-23T13:52:45.574Z,21.98
2017-04-23T13:53:56.028Z,21.98
2017-04-23T13:55:06.112Z,22.08
2017-04-23T13:56:16.361Z,21.98
2017-04-23T13:57:26.432Z,22.17
2017-04-23T13:58:36.736Z,21.98
2017-04-23T13:59:47.360Z,22.55
2017-04-23T14:00:57.501Z,22.27
2017-04-23T14:02:07.979Z,22.46
2017-04-23T14:03:18.555Z,22.65
2017-04-23T14:04:29.030Z,22.75
2017-04-23T14:05:39.786Z,22.65
2017-04-23T14:06:50.295Z,22.75
2017-04-23T14:08:00.752Z,22.65
2017-04-23T14:09:10.972Z,22.46
2017-04-23T14:10:21.729Z,22.75
2017-04-23T14:11:32.621Z,22.75
2017-04-23T14:12:43.610Z,22.65
2017-04-23T14:13:54.668Z,22.75
2017-04-23T14:15:06.330Z,22.65
2017-04-23T14:16:17.148Z,22.84
2017-04-23T14:17:28.772Z,22.65
2017-04-23T14:18:39.655Z,22.75
2017-04-23T14:19:51.637Z,22.75
2017-04-23T14:21:02.753Z,22.65
2017-04-23T14:22:14.157Z,23.03
2017-04-23T14:23:24.967Z,22.46
2017-04-23T14:24:35.397Z,22.94
2017-04-23T14:25:45.971Z,22.55
2017-04-23T14:26:56.450Z,22.84
2017-04-23T14:28:06.920Z,22.84
2017-04-23T14:29:17.600Z,22.84
2017-04-23T14:30:27.724Z,22.94
2017-04-23T14:31:38.211Z,22.55
2017-04-23T14:32:48.018Z,22.84
2017-04-23T14:33:58.508Z,22.94
2017-04-23T14:35:08.902Z,22.94
2017-04-23T14:36:19.072Z,22.84
2017-04-23T14:37:29.206Z,22.94
2017-04-23T14:38:39.686Z,22.65
2017-04-23T14:39:49.806Z,22.65
2017-04-23T14:41:00.236Z,22.94
2017-04-23T14:42:10.796Z,22.94
2017-04-23T14:43:20.596Z,22.84
2017-04-23T14:44:31.039Z,22.94
2017-04-23T14:45:41.447Z,23.03
2017-04-23T14:46:52.163Z,22.94
2017-04-23T14:48:02.603Z,22.84
2017-04-23T14:49:12.767Z,23.03
2017-04-23T14:50:23.160Z,22.94
2017-04-23T14:51:33.579Z,23.03
2017-04-23T14:52:43.916Z,23.13
2017-04-23T14:53:54.002Z,23.13
2017-04-23T14:55:04.392Z,23.03
2017-04-23T14:56:14.481Z,23.03
2017-04-23T14:57:24.863Z,23.22
2017-04-23T14:58:35.169Z,23.22
2017-04-23T14:59:45.294Z,23.22
2017-04-23T15:00:55.362Z,23.22
2017-04-23T15:02:05.444Z,23.42
2017-04-23T15:03:15.517Z,23.42
2017-04-23T15:04:26.178Z,23.22
2017-04-23T15:05:36.243Z,23.22
2017-04-23T15:06:46.650Z,23.32
2017-04-23T15:07:57.054Z,23.22
2017-04-23T15:09:07.447Z,23.22